Pagrindinis puslapis
METAR-TAF:

METAR-TAF

Oro uostai :

Ha'il, Saudo Arabija

platuma: 27-26N, ilguma: 041-41E, Aukštis: 1015 m

Dabartinis oras

Ataskaita buvo paskelbta 44 minutes, ne 18:00 UTC
Vėjas 6 kt iš Šiaurės Rytų
Temperatūra 22°C
Drėgmė 25%
Slėgis 1018 hPa
Matomumas 10 km arba daugiau
nėra debesų žemiau 1500 m ir nėra kamuolinių lietaus debesų

METAR: OEHL 131800Z 04006KT CAVOK 22/01 Q1018 NOSIG

Laikas: 21:44 (18:44 UTC)

Prognozė

Ataskaita buvo paskelbta 7 valandos ir 44 minutes, ne 11:00 UTC
Prognozė galioja nuo 13 metu 12 UTC su 14 metu 18 UTC
Vėjas 14 kt iš Šiaurės
Matomumas: 6000 m
Mažai debesys ne aukštis 4000 ft

TAF: OEHL 131100Z 1312/1418 36014KT 6000 FEW040

Orai ataskaitas ir orų prognozės (METAR, TAF).

turimą stotys yra geltonos ir raudonos taškus žemėlapyje.

Perkelti pele per norėdami pamatyti stoties vardą.

Tada spustelėkite, norėdami matyti oro stebėjimo ir prognozės.

Norėdami pakeisti žemėlapį: spustelėkite ant žalios mygtukų su juodo kryžiaus žemyn,; žalią mygtuką su brūkšneliu, jei norite nutolinti; arba žalių rodyklių gretimoms žemėlapius.


METAR-TAF: